CheckWX is a tool to help pilots better visualize weather data.  It is not intended as a substitute for an official pre-flight weather briefing.

21:53:08 UTC

KSCH METAR
Schenectady County Airport
Schenectady, New York, USA
Current

54 mins ago

KSCH 202059Z 00000KT 10SM -RA OVC090 10/09 A3002
Observed
Oct-20 @ 20:59 UTC
Visibility
10 SM
Flight Rules
VFR
Conditions
Light Rain
Cloud Levels
  • Overcast at 9,000' AGL
Temperature
10°C / 50°F
Dewpoint
C / 48°F
Humidity
94%
Altimeter
30.02" Hg
Pressure
1016.62 hPa
Previous

2 hours ago

KSCH 201945Z 17005KT 7SM DZ OVC090 11/08 A3003
Observed
Oct-20 @ 19:45 UTC
Wind
  • 170° at 5 KTS
Visibility
7 SM
Flight Rules
VFR
Conditions
Drizzle
Cloud Levels
  • Overcast at 9,000' AGL
Temperature
11°C / 52°F
Dewpoint
C / 46°F
Humidity
82%
Altimeter
30.03" Hg
Pressure
1016.92 hPa
Previous

3 hours ago

KSCH 201845Z 00000KT 10SM -RA SCT070 OVC090 11/07 A3004
Observed
Oct-20 @ 18:45 UTC
Visibility
10 SM
Flight Rules
VFR
Conditions
Light Rain
Cloud Levels
  • Scattered at 7,000' AGL
  • Overcast at 9,000' AGL
Temperature
11°C / 52°F
Dewpoint
C / 45°F
Humidity
77%
Altimeter
30.04" Hg
Pressure
1017.32 hPa